< < Back
Terminal Aerodrome Forecast


Current Version              Previous Versions:   1  2  3  4  5  6  7  8  9  

Terminal Aerodrome Forecast

392
FTUS42 KTAE 012300
TAFVLD
TAF
KVLD 012334Z 0200/0224 20004KT P6SM VCTS SCT040CB
     FM020300 00000KT P6SM SCT250
     FM021500 36003KT P6SM FEW040
     FM021800 15004KT P6SM VCTS SCT050CB
     FM022000 VRB15G25KT 3SM TSRA SCT030 BKN040CB=

Latest METAR

312
SAUS70 KWBC 021700 RRA
MTRVLD
METAR KVLD 021653Z 00000KT 10SM FEW035 32/23 A3009 RMK AO2 SLP194
T03220233


USA.gov is the U.S. government's official web portal to all federal, state and local government web resources and services.